Time;durP1;ratioP1;P1;durP2;ratioP2;P2;SDS_P1;SDS_P2;PMS_P1;PMS_P2;Temp;Humidity;BMP_temperature;BMP_pressure;BME280_temperature;BME280_humidity;BME280_pressure;Samples;Min_cycle;Max_cycle;Signal;HPM_P1;HPM_P2
2022/02/14 00:00:18;;;;;;;16.58;14.70;;;6.10;99.90;;;;;;5028600;28;20131;-87
2022/02/14 00:02:45;;;;;;;17.17;15.07;;;6.10;99.90;;;;;;5005613;28;20502;-82
2022/02/14 00:05:12;;;;;;;17.95;16.38;;;6.10;99.90;;;;;;5006636;28;20061;-83
2022/02/14 00:07:39;;;;;;;17.02;15.35;;;6.10;99.90;;;;;;5023816;28;20053;-85
2022/02/14 00:10:08;;;;;;;19.10;15.45;;;6.00;99.90;;;;;;5011293;28;20055;-84
2022/02/14 00:12:39;;;;;;;16.10;14.60;;;6.00;99.90;;;;;;5027458;28;20573;-85
2022/02/14 00:15:08;;;;;;;17.88;16.38;;;6.00;99.90;;;;;;5021263;28;20785;-83
2022/02/14 00:17:35;;;;;;;17.05;15.38;;;6.00;99.90;;;;;;5008806;28;20076;-85
2022/02/14 00:20:03;;;;;;;17.75;16.05;;;6.10;99.90;;;;;;4990815;28;20049;-85
2022/02/14 00:22:30;;;;;;;17.67;16.15;;;6.10;99.90;;;;;;5008489;28;20061;-83
2022/02/14 00:24:58;;;;;;;17.00;15.57;;;6.00;99.90;;;;;;5026848;28;20045;-84
2022/02/14 00:27:24;;;;;;;15.98;14.85;;;6.00;99.90;;;;;;5012483;28;20104;-83
2022/02/14 00:29:51;;;;;;;16.45;15.15;;;6.00;99.90;;;;;;5029118;28;20064;-84
2022/02/14 00:32:20;;;;;;;17.35;15.52;;;6.00;99.90;;;;;;5026128;28;20107;-82
2022/02/14 00:34:48;;;;;;;18.02;15.85;;;6.10;99.90;;;;;;5027926;28;20073;-83
2022/02/14 00:37:16;;;;;;;18.10;16.27;;;6.00;99.90;;;;;;5028396;28;20055;-81
2022/02/14 00:39:44;;;;;;;16.45;14.85;;;6.00;99.90;;;;;;5028139;28;20135;-88
2022/02/14 00:42:12;;;;;;;17.33;15.60;;;5.90;99.90;;;;;;5020127;28;20038;-83
2022/02/14 00:44:40;;;;;;;16.58;14.98;;;5.90;99.90;;;;;;5028447;28;20041;-84
2022/02/14 00:47:10;;;;;;;17.27;15.75;;;5.90;99.90;;;;;;5023256;28;20492;-83
2022/02/14 00:49:36;;;;;;;16.35;14.88;;;5.90;99.90;;;;;;5011900;28;20142;-82
2022/02/14 00:52:04;;;;;;;16.83;15.13;;;5.90;99.90;;;;;;5010290;28;20083;-83
2022/02/14 00:54:31;;;;;;;18.27;16.67;;;5.90;99.90;;;;;;4992717;28;20699;-83
2022/02/14 00:56:59;;;;;;;18.13;16.33;;;5.90;99.90;;;;;;5042732;28;20041;-83
2022/02/14 00:59:26;;;;;;;18.13;16.15;;;5.90;99.90;;;;;;5020093;28;20731;-82
2022/02/14 01:01:53;;;;;;;18.13;16.48;;;5.90;99.90;;;;;;5015131;28;20045;-83
2022/02/14 01:04:20;;;;;;;17.85;16.25;;;5.90;99.90;;;;;;5018252;28;20056;-83
2022/02/14 01:06:49;;;;;;;18.17;16.55;;;5.90;99.90;;;;;;5012604;28;20095;-86
2022/02/14 01:09:16;;;;;;;17.83;16.15;;;5.80;99.90;;;;;;5025522;28;20567;-85
2022/02/14 01:11:43;;;;;;;21.85;16.42;;;5.70;99.90;;;;;;5015614;28;20361;-82
2022/02/14 01:14:14;;;;;;;16.55;15.15;;;5.70;99.90;;;;;;5012319;28;20621;-82
2022/02/14 01:16:42;;;;;;;19.70;15.40;;;5.70;99.90;;;;;;5011466;28;20283;-83
2022/02/14 01:19:09;;;;;;;19.27;15.93;;;5.60;99.90;;;;;;5012548;28;20064;-85
2022/02/14 01:21:36;;;;;;;17.15;15.57;;;5.60;99.90;;;;;;4994794;28;20045;-83
2022/02/14 01:24:03;;;;;;;17.27;15.55;;;5.60;99.90;;;;;;5013234;28;20630;-83
2022/02/14 01:26:30;;;;;;;17.58;15.80;;;5.60;99.90;;;;;;5030134;28;20060;-85
2022/02/14 01:28:58;;;;;;;15.68;14.30;;;5.60;99.90;;;;;;4995456;28;20073;-84
2022/02/14 01:31:25;;;;;;;18.75;15.00;;;5.60;99.90;;;;;;5028538;28;20683;-83
2022/02/14 01:33:52;;;;;;;15.93;14.43;;;5.70;99.90;;;;;;5012980;28;20656;-82
2022/02/14 01:36:19;;;;;;;16.65;15.23;;;5.60;99.90;;;;;;5012411;28;20704;-83
2022/02/14 01:38:46;;;;;;;19.77;14.73;;;5.60;99.90;;;;;;5021901;28;20049;-85
2022/02/14 01:41:13;;;;;;;17.08;15.35;;;5.60;99.90;;;;;;5015373;28;20558;-83
2022/02/14 01:43:43;;;;;;;15.50;14.02;;;5.60;99.90;;;;;;5015702;28;20128;-85
2022/02/14 01:46:12;;;;;;;15.35;13.90;;;5.70;99.90;;;;;;5015697;28;20060;-83
2022/02/14 01:48:40;;;;;;;18.60;15.27;;;5.60;99.90;;;;;;5031782;28;20116;-82
2022/02/14 01:51:09;;;;;;;17.63;14.52;;;5.70;99.90;;;;;;5029517;28;20443;-84
2022/02/14 01:53:36;;;;;;;15.02;13.68;;;5.70;99.90;;;;;;5032546;28;20076;-84
2022/02/14 01:56:04;;;;;;;15.48;14.32;;;5.70;99.90;;;;;;5016364;28;20720;-82
2022/02/14 01:58:31;;;;;;;16.60;14.98;;;5.70;99.90;;;;;;5033126;28;20049;-83
2022/02/14 02:00:58;;;;;;;15.27;14.02;;;5.70;99.90;;;;;;5015432;28;20060;-85
2022/02/14 02:03:25;;;;;;;15.50;14.20;;;5.60;99.90;;;;;;5031261;28;20454;-82
2022/02/14 02:05:54;;;;;;;18.83;15.68;;;5.60;99.90;;;;;;5015019;28;20127;-85
2022/02/14 02:08:21;;;;;;;16.30;14.73;;;5.60;99.90;;;;;;5015097;28;20725;-81
2022/02/14 02:10:48;;;;;;;16.38;14.82;;;5.60;99.90;;;;;;5032386;28;20110;-84
2022/02/14 02:13:17;;;;;;;14.93;13.60;;;5.60;99.90;;;;;;5016291;28;20065;-86
2022/02/14 02:15:44;;;;;;;16.27;14.60;;;5.50;99.90;;;;;;5017446;28;20049;-84
2022/02/14 02:18:11;;;;;;;17.45;13.95;;;5.50;99.90;;;;;;5017448;28;20053;-85
2022/02/14 02:20:39;;;;;;;16.40;14.70;;;5.50;99.90;;;;;;5019614;28;20088;-86
2022/02/14 02:23:06;;;;;;;17.38;15.23;;;5.40;99.90;;;;;;5026097;28;20057;-85
2022/02/14 02:25:34;;;;;;;16.48;15.05;;;5.40;99.90;;;;;;5008548;28;20115;-83
2022/02/14 02:28:00;;;;;;;16.85;15.20;;;5.40;99.90;;;;;;5045820;28;20053;-86
2022/02/14 02:30:29;;;;;;;16.52;15.13;;;5.50;99.90;;;;;;5036303;28;20041;-84
2022/02/14 02:32:56;;;;;;;16.75;15.13;;;5.50;99.90;;;;;;5019082;28;20045;-87
2022/02/14 02:35:23;;;;;;;16.02;14.55;;;5.50;99.90;;;;;;5019007;28;20067;-87
2022/02/14 02:37:50;;;;;;;16.63;14.98;;;5.50;99.90;;;;;;5001151;28;20069;-84
2022/02/14 02:40:18;;;;;;;18.13;16.50;;;5.50;99.90;;;;;;5035055;28;20479;-86
2022/02/14 02:42:46;;;;;;;15.73;14.23;;;5.50;99.90;;;;;;5037343;28;20049;-86
2022/02/14 02:45:17;;;;;;;16.58;15.02;;;5.50;99.90;;;;;;5022216;28;20087;-87
2022/02/14 02:47:44;;;;;;;17.35;15.55;;;5.50;99.90;;;;;;5023431;28;20049;-86
2022/02/14 02:50:13;;;;;;;16.33;14.82;;;5.50;99.90;;;;;;5026160;28;20068;-85
2022/02/14 02:52:41;;;;;;;16.73;15.43;;;5.50;99.90;;;;;;5045754;28;20045;-87
2022/02/14 02:55:08;;;;;;;17.38;15.77;;;5.50;99.90;;;;;;5024881;28;20056;-87
2022/02/14 02:57:35;;;;;;;15.75;14.40;;;5.50;99.90;;;;;;5033704;28;20457;-86
2022/02/14 03:00:05;;;;;;;16.25;14.88;;;5.50;99.90;;;;;;5008422;28;20124;-88
2022/02/14 03:02:32;;;;;;;15.82;14.30;;;5.50;99.90;;;;;;5017244;28;20057;-86
2022/02/14 03:04:59;;;;;;;16.05;14.35;;;5.50;99.90;;;;;;5016606;28;20487;-86
2022/02/14 03:07:26;;;;;;;15.35;13.80;;;5.50;99.90;;;;;;5015974;28;20045;-86
2022/02/14 03:09:54;;;;;;;16.20;14.80;;;5.50;99.90;;;;;;5015839;28;20205;-86
2022/02/14 03:12:20;;;;;;;17.35;15.25;;;5.50;99.90;;;;;;5014795;28;20132;-87
2022/02/14 03:14:48;;;;;;;15.82;14.30;;;5.50;99.90;;;;;;5031546;28;20045;-85
2022/02/14 03:17:16;;;;;;;16.10;14.48;;;5.40;99.90;;;;;;5031919;28;20136;-86
2022/02/14 03:19:43;;;;;;;16.33;14.85;;;5.40;99.90;;;;;;5015474;28;20041;-87
2022/02/14 03:22:10;;;;;;;16.40;14.93;;;5.40;99.90;;;;;;5031802;28;20091;-88
2022/02/14 03:24:37;;;;;;;15.40;14.15;;;5.40;99.90;;;;;;5032219;28;20052;-84
2022/02/14 03:27:04;;;;;;;17.02;15.57;;;5.40;99.90;;;;;;5033463;28;20160;-87
2022/02/14 03:29:31;;;;;;;15.60;14.40;;;5.40;99.90;;;;;;5026322;28;20041;-87
2022/02/14 03:31:59;;;;;;;17.65;15.05;;;5.40;99.90;;;;;;5012451;28;20056;-87
2022/02/14 03:34:26;;;;;;;16.90;15.18;;;5.40;99.90;;;;;;4995830;28;20045;-86
2022/02/14 03:36:53;;;;;;;17.13;15.35;;;5.30;99.90;;;;;;5024662;28;20044;-87
2022/02/14 03:39:19;;;;;;;14.15;13.25;;;5.30;99.90;;;;;;5015826;28;20077;-87
2022/02/14 03:41:47;;;;;;;15.82;14.52;;;5.40;99.90;;;;;;5032502;28;20136;-85
2022/02/14 03:44:14;;;;;;;15.00;13.65;;;5.40;99.90;;;;;;5015494;28;20397;-87
2022/02/14 03:46:41;;;;;;;16.73;15.00;;;5.30;99.90;;;;;;5013168;28;20044;-85
2022/02/14 03:49:08;;;;;;;15.95;14.75;;;5.30;99.90;;;;;;5015202;28;20098;-87
2022/02/14 03:51:36;;;;;;;15.02;13.63;;;5.30;99.90;;;;;;5032742;28;20109;-88
2022/02/14 03:54:03;;;;;;;15.77;14.45;;;5.40;99.90;;;;;;5018643;28;20052;-86
2022/02/14 03:56:30;;;;;;;16.95;14.40;;;5.40;99.90;;;;;;5034449;28;20041;-87
2022/02/14 03:59:00;;;;;;;14.70;13.20;;;5.30;99.90;;;;;;5031612;28;20045;-81
2022/02/14 04:01:27;;;;;;;16.10;14.52;;;5.30;99.90;;;;;;5026720;28;20053;-86
2022/02/14 04:03:54;;;;;;;15.23;13.82;;;5.30;99.90;;;;;;5042793;28;20313;-84
2022/02/14 04:06:21;;;;;;;14.95;13.85;;;5.30;99.90;;;;;;5043394;28;20240;-84
2022/02/14 04:08:48;;;;;;;14.50;13.43;;;5.30;99.90;;;;;;5027094;28;20228;-87
2022/02/14 04:11:15;;;;;;;15.32;14.02;;;5.30;99.90;;;;;;5022817;28;20205;-87
2022/02/14 04:13:43;;;;;;;15.45;14.25;;;5.30;99.90;;;;;;5044733;28;20049;-84
2022/02/14 04:16:09;;;;;;;14.32;13.20;;;5.30;99.90;;;;;;5027075;28;20106;-83
2022/02/14 04:18:36;;;;;;;16.13;14.70;;;5.30;99.90;;;;;;5042399;28;20047;-86
2022/02/14 04:21:03;;;;;;;14.52;13.25;;;5.40;99.90;;;;;;5017812;28;20073;-85
2022/02/14 04:23:30;;;;;;;15.50;14.25;;;5.50;99.90;;;;;;5039707;28;20113;-85
2022/02/14 04:25:57;;;;;;;15.88;14.35;;;5.50;99.90;;;;;;5033135;28;20383;-86
2022/02/14 04:28:24;;;;;;;16.38;14.90;;;5.70;99.90;;;;;;5031212;28;20049;-82
2022/02/14 04:30:51;;;;;;;15.73;14.35;;;5.70;99.90;;;;;;5038719;28;20514;-86
2022/02/14 04:33:18;;;;;;;16.98;14.38;;;5.60;99.90;;;;;;5035134;28;20098;-86
2022/02/14 04:35:45;;;;;;;16.02;14.13;;;5.70;99.90;;;;;;5030966;28;20061;-82
2022/02/14 04:38:13;;;;;;;15.63;14.43;;;5.70;99.90;;;;;;5032751;28;20083;-85
2022/02/14 04:40:39;;;;;;;16.40;13.52;;;5.70;99.90;;;;;;5014047;28;20060;-83
2022/02/14 04:43:07;;;;;;;14.45;13.18;;;5.70;99.90;;;;;;5032513;28;20067;-86
2022/02/14 04:45:35;;;;;;;14.80;13.65;;;5.70;99.90;;;;;;5032891;28;20041;-90
2022/02/14 04:48:02;;;;;;;14.07;12.88;;;5.70;99.90;;;;;;5033328;28;20502;-86
2022/02/14 04:50:29;;;;;;;14.25;13.10;;;5.70;99.90;;;;;;5015254;28;20045;-86
2022/02/14 04:52:56;;;;;;;14.75;13.55;;;5.70;99.90;;;;;;5017358;28;20037;-86
2022/02/14 04:55:26;;;;;;;14.30;13.13;;;5.80;99.90;;;;;;5016884;28;20080;-86
2022/02/14 04:57:53;;;;;;;14.38;13.07;;;5.80;99.90;;;;;;5034428;28;20045;-86
2022/02/14 05:00:21;;;;;;;14.70;12.80;;;5.80;99.90;;;;;;5032839;28;20063;-86
2022/02/14 05:02:51;;;;;;;16.50;15.10;;;5.80;99.90;;;;;;5034011;28;20586;-88
2022/02/14 05:05:20;;;;;;;16.83;14.75;;;5.80;99.90;;;;;;4999920;28;20699;-87
2022/02/14 05:07:50;;;;;;;15.85;14.57;;;5.80;99.90;;;;;;5014375;28;20041;-85
2022/02/14 05:10:19;;;;;;;15.05;13.57;;;5.90;99.90;;;;;;5031792;28;20106;-88
2022/02/14 05:12:47;;;;;;;16.48;14.85;;;5.90;99.90;;;;;;5017480;28;20094;-89
2022/02/14 05:15:15;;;;;;;15.73;14.63;;;5.90;99.90;;;;;;5016525;28;20068;-85
2022/02/14 05:17:43;;;;;;;16.35;15.23;;;5.90;99.90;;;;;;5017205;28;20063;-86
2022/02/14 05:20:11;;;;;;;17.23;15.50;;;5.90;99.90;;;;;;5023683;28;20113;-86
2022/02/14 05:22:37;;;;;;;15.95;14.65;;;5.90;99.90;;;;;;5014467;28;20057;-87
2022/02/14 05:25:07;;;;;;;16.25;14.70;;;5.80;99.90;;;;;;5032992;28;20053;-86
2022/02/14 05:27:34;;;;;;;17.27;15.68;;;5.90;99.90;;;;;;5032734;28;20052;-87
2022/02/14 05:30:04;;;;;;;16.17;14.98;;;5.80;99.90;;;;;;5017561;28;20459;-87
2022/02/14 05:32:32;;;;;;;16.77;15.27;;;5.80;99.90;;;;;;5016592;28;20045;-87
2022/02/14 05:34:59;;;;;;;15.50;14.48;;;5.80;99.90;;;;;;5013692;28;20461;-86
2022/02/14 05:37:28;;;;;;;15.00;13.90;;;5.90;99.90;;;;;;5032660;28;20265;-87
2022/02/14 05:40:08;;;;;;;16.20;14.85;;;5.90;99.90;;;;;;5016849;28;20052;-88
2022/02/14 05:42:42;;;;;;;15.88;14.60;;;5.90;99.90;;;;;;5026026;28;20465;-86
2022/02/14 05:45:14;;;;;;;15.45;14.40;;;6.00;99.90;;;;;;5012319;28;20126;-87
2022/02/14 05:47:45;;;;;;;15.02;13.82;;;6.00;99.90;;;;;;4998581;28;20053;-87
2022/02/14 05:50:22;;;;;;;16.33;15.00;;;6.00;99.90;;;;;;5013427;28;20049;-87
2022/02/14 05:53:00;;;;;;;15.85;14.48;;;6.00;99.90;;;;;;5016836;28;20048;-86
2022/02/14 05:55:27;;;;;;;15.95;14.55;;;6.10;99.90;;;;;;5014643;28;20556;-87
2022/02/14 05:57:54;;;;;;;16.15;14.55;;;6.00;99.90;;;;;;5015081;28;20260;-88
2022/02/14 06:00:21;;;;;;;16.10;14.93;;;6.00;99.90;;;;;;5004534;28;20062;-84
2022/02/14 06:02:48;;;;;;;16.30;14.95;;;6.10;99.90;;;;;;5004158;28;20049;-88
2022/02/14 06:05:23;;;;;;;14.52;13.30;;;6.00;99.90;;;;;;5014838;28;20041;-88
2022/02/14 06:08:04;;;;;;;16.85;14.35;;;6.10;99.90;;;;;;5017758;28;20052;-87
2022/02/14 06:10:30;;;;;;;15.23;14.02;;;6.00;99.90;;;;;;5015156;28;20132;-88
2022/02/14 06:12:58;;;;;;;14.15;13.15;;;6.00;99.90;;;;;;5006358;28;20624;-86
2022/02/14 06:15:25;;;;;;;14.20;13.13;;;6.00;99.90;;;;;;5013449;28;20045;-88
2022/02/14 06:17:52;;;;;;;15.23;13.75;;;6.10;99.90;;;;;;5030598;28;20075;-87
2022/02/14 06:20:20;;;;;;;15.52;14.23;;;6.10;99.90;;;;;;5000921;28;20277;-87
2022/02/14 06:22:47;;;;;;;15.00;14.00;;;6.10;99.90;;;;;;5013696;28;20057;-90
2022/02/14 06:25:14;;;;;;;15.43;14.27;;;6.10;99.90;;;;;;5013076;28;20088;-88
2022/02/14 06:27:41;;;;;;;15.27;14.18;;;6.10;99.90;;;;;;5011962;28;20053;-86
2022/02/14 06:30:08;;;;;;;14.93;13.70;;;6.20;99.90;;;;;;5027450;28;20049;-87
2022/02/14 06:32:35;;;;;;;16.98;15.18;;;6.20;99.90;;;;;;5012692;28;20045;-88
2022/02/14 06:35:03;;;;;;;16.50;15.30;;;6.20;99.90;;;;;;5018709;28;20143;-89
2022/02/14 06:37:33;;;;;;;17.15;15.75;;;6.20;99.90;;;;;;5031408;28;20222;-88
2022/02/14 06:40:04;;;;;;;17.25;15.73;;;6.20;99.90;;;;;;5014391;28;20044;-88
2022/02/14 06:42:30;;;;;;;17.05;15.48;;;6.20;99.90;;;;;;5013753;28;20091;-87
2022/02/14 06:44:58;;;;;;;15.70;14.70;;;6.20;99.90;;;;;;5029696;28;20667;-86
2022/02/14 06:47:25;;;;;;;17.60;16.30;;;6.20;99.90;;;;;;5013127;28;20461;-87
2022/02/14 06:49:53;;;;;;;17.25;15.63;;;6.20;99.90;;;;;;5026529;28;20498;-87
2022/02/14 06:52:20;;;;;;;16.95;15.60;;;6.30;99.90;;;;;;5027453;28;20041;-86
2022/02/14 06:54:47;;;;;;;17.23;15.68;;;6.20;99.90;;;;;;5026141;28;20045;-86
2022/02/14 06:57:14;;;;;;;17.02;15.73;;;6.30;99.90;;;;;;5012040;28;20041;-85
2022/02/14 06:59:42;;;;;;;18.05;16.95;;;6.30;99.90;;;;;;5018467;28;20203;-86
2022/02/14 07:02:08;;;;;;;18.85;17.25;;;6.30;99.90;;;;;;4989694;28;20057;-86
2022/02/14 07:04:35;;;;;;;18.63;16.98;;;6.30;99.90;;;;;;5028578;28;20056;-86
2022/02/14 07:07:05;;;;;;;18.63;17.25;;;6.20;99.90;;;;;;5012878;28;20041;-89
2022/02/14 07:09:32;;;;;;;19.20;17.77;;;6.20;99.90;;;;;;5031426;28;20041;-88
2022/02/14 07:11:59;;;;;;;18.83;17.20;;;6.10;99.90;;;;;;5015311;28;20587;-84
2022/02/14 07:14:27;;;;;;;18.10;16.58;;;6.20;99.90;;;;;;5033400;28;20052;-84
2022/02/14 07:16:53;;;;;;;16.80;15.50;;;6.10;99.90;;;;;;5017354;28;20063;-87
2022/02/14 07:19:20;;;;;;;17.75;16.38;;;6.20;99.90;;;;;;5035315;28;20755;-85
2022/02/14 07:21:47;;;;;;;17.60;16.20;;;6.10;99.90;;;;;;5052359;28;20060;-83
2022/02/14 07:24:14;;;;;;;17.45;16.20;;;6.20;99.90;;;;;;5035538;28;20134;-86
2022/02/14 07:26:44;;;;;;;18.40;16.55;;;6.20;99.90;;;;;;5024176;28;20048;-86
2022/02/14 07:29:13;;;;;;;16.75;15.45;;;6.10;99.90;;;;;;5029931;28;20636;-85
2022/02/14 07:31:41;;;;;;;16.10;14.90;;;6.10;99.90;;;;;;5030495;28;20275;-86
2022/02/14 07:34:09;;;;;;;17.75;16.13;;;6.20;99.90;;;;;;5013645;28;20115;-86
2022/02/14 07:36:40;;;;;;;16.70;14.95;;;6.20;99.90;;;;;;5030666;28;20090;-87
2022/02/14 07:39:11;;;;;;;16.92;15.27;;;6.20;99.90;;;;;;5030619;28;20045;-88
2022/02/14 07:41:38;;;;;;;16.30;15.00;;;6.30;99.90;;;;;;5013503;28;20142;-86
2022/02/14 07:44:06;;;;;;;16.27;15.10;;;6.30;99.90;;;;;;5014172;28;20127;-85
2022/02/14 07:46:36;;;;;;;16.13;14.93;;;6.30;99.90;;;;;;5012580;28;20045;-85
2022/02/14 07:49:03;;;;;;;16.80;15.18;;;6.30;99.90;;;;;;5011144;28;20120;-86
2022/02/14 07:51:30;;;;;;;16.73;15.52;;;6.40;99.90;;;;;;5014935;28;20033;-88
2022/02/14 07:53:57;;;;;;;16.83;15.45;;;6.30;99.90;;;;;;5014838;28;20128;-86
2022/02/14 07:56:24;;;;;;;17.27;15.73;;;6.40;99.90;;;;;;5031286;28;20095;-88
2022/02/14 07:58:51;;;;;;;16.55;15.27;;;6.40;99.90;;;;;;5016016;28;20065;-86
2022/02/14 08:01:18;;;;;;;17.30;15.88;;;6.40;99.90;;;;;;5028458;28;20598;-84
2022/02/14 08:03:45;;;;;;;16.42;15.30;;;6.40;99.90;;;;;;5012128;28;20525;-86
2022/02/14 08:06:30;;;;;;;17.70;16.08;;;6.40;99.90;;;;;;5001801;28;20181;-84
2022/02/14 08:09:00;;;;;;;16.02;14.88;;;6.50;99.90;;;;;;5028582;28;20048;-84
2022/02/14 08:11:31;;;;;;;16.92;15.32;;;6.50;99.90;;;;;;5021917;28;20041;-87
2022/02/14 08:13:59;;;;;;;16.90;15.52;;;6.60;99.90;;;;;;4995036;28;20137;-84
2022/02/14 08:16:33;;;;;;;15.63;14.32;;;6.60;99.90;;;;;;4997241;28;20253;-85
2022/02/14 08:19:10;;;;;;;16.65;15.18;;;6.70;99.90;;;;;;4992059;28;20045;-85
2022/02/14 08:21:40;;;;;;;15.45;14.00;;;6.80;99.90;;;;;;5051339;28;20059;-84
2022/02/14 08:24:12;;;;;;;16.30;14.98;;;6.90;99.90;;;;;;5025915;28;20068;-84
2022/02/14 08:26:39;;;;;;;16.88;15.32;;;6.90;99.90;;;;;;5027412;28;20060;-85
2022/02/14 08:29:06;;;;;;;17.02;15.75;;;6.90;99.90;;;;;;5029639;28;20482;-84
2022/02/14 08:31:33;;;;;;;16.88;15.65;;;7.00;99.90;;;;;;5031222;28;20102;-84
2022/02/14 08:34:00;;;;;;;17.45;16.08;;;7.10;99.90;;;;;;5012360;28;20488;-86
2022/02/14 08:36:31;;;;;;;17.33;16.13;;;7.30;99.90;;;;;;5028751;28;20056;-86
2022/02/14 08:39:00;;;;;;;17.25;15.75;;;7.50;99.90;;;;;;5028655;28;20045;-85
2022/02/14 08:41:27;;;;;;;20.30;18.45;;;7.50;99.90;;;;;;5030305;28;20128;-84
2022/02/14 08:43:54;;;;;;;17.65;16.55;;;7.50;99.90;;;;;;5012543;28;20721;-82
2022/02/14 08:46:22;;;;;;;17.20;15.57;;;7.50;99.90;;;;;;5012643;28;20774;-82
2022/02/14 08:48:51;;;;;;;17.77;16.48;;;7.60;99.90;;;;;;5013581;28;20769;-83
2022/02/14 08:51:20;;;;;;;16.58;15.27;;;7.70;99.90;;;;;;5014802;28;20045;-86
2022/02/14 08:53:49;;;;;;;16.13;15.05;;;7.50;99.90;;;;;;5020554;28;20049;-84
2022/02/14 08:56:16;;;;;;;15.40;14.20;;;7.50;99.90;;;;;;5018724;28;20084;-85
2022/02/14 08:58:45;;;;;;;16.73;15.63;;;7.40;99.90;;;;;;5026676;28;20240;-85
2022/02/14 09:01:13;;;;;;;14.93;13.90;;;7.40;99.90;;;;;;5031166;28;20048;-87
2022/02/14 09:03:40;;;;;;;14.10;12.88;;;7.50;99.90;;;;;;5050415;28;20037;-82
2022/02/14 09:06:11;;;;;;;14.43;13.48;;;7.50;99.90;;;;;;5029454;28;20062;-84
2022/02/14 09:08:42;;;;;;;16.88;15.52;;;7.50;99.90;;;;;;5015330;28;20442;-82
2022/02/14 09:11:09;;;;;;;18.75;17.40;;;7.50;99.90;;;;;;5008325;28;20056;-83
2022/02/14 09:13:39;;;;;;;17.80;16.33;;;7.70;99.90;;;;;;5016873;28;20057;-85
2022/02/14 09:16:34;;;;;;;18.90;17.58;;;7.90;99.90;;;;;;5032262;28;20126;-85
2022/02/14 09:19:01;;;;;;;18.70;17.15;;;8.30;99.90;;;;;;5022668;28;20145;-85
2022/02/14 09:21:30;;;;;;;20.02;18.60;;;8.50;99.90;;;;;;5056293;28;20044;-87
2022/02/14 09:24:00;;;;;;;18.67;17.20;;;8.70;99.90;;;;;;5037857;28;20467;-85
2022/02/14 09:26:48;;;;;;;18.02;16.90;;;8.80;99.90;;;;;;5041525;28;20066;-85
2022/02/14 09:29:24;;;;;;;17.40;15.95;;;8.70;99.90;;;;;;5016440;28;20060;-85
2022/02/14 09:32:11;;;;;;;19.02;17.27;;;8.70;99.90;;;;;;5015112;28;20065;-86
2022/02/14 09:34:44;;;;;;;18.10;16.60;;;8.70;99.90;;;;;;5032491;28;20054;-86
2022/02/14 09:37:17;;;;;;;17.02;15.85;;;8.70;99.90;;;;;;5031932;28;20300;-88
2022/02/14 09:39:52;;;;;;;17.30;16.20;;;8.70;99.90;;;;;;5034079;28;20060;-87
2022/02/14 09:42:23;;;;;;;17.52;16.25;;;8.70;99.90;;;;;;5029390;28;20115;-86
2022/02/14 09:44:56;;;;;;;16.88;15.77;;;8.70;99.90;;;;;;5018273;28;20132;-87
2022/02/14 09:47:40;;;;;;;18.55;17.23;;;8.70;99.90;;;;;;4989253;28;20041;-86
2022/02/14 09:50:14;;;;;;;18.98;17.55;;;8.70;99.90;;;;;;5014760;28;20041;-85
2022/02/14 09:52:47;;;;;;;18.60;17.58;;;8.80;99.90;;;;;;5001270;28;20050;-85
2022/02/14 09:55:23;;;;;;;20.05;18.55;;;8.80;99.90;;;;;;5016776;28;20134;-85
2022/02/14 09:57:57;;;;;;;20.00;18.15;;;9.00;99.90;;;;;;4999216;28;20057;-86
2022/02/14 10:00:24;;;;;;;19.50;18.10;;;9.00;99.90;;;;;;5011251;28;20054;-85
2022/02/14 10:03:18;;;;;;;18.92;17.67;;;9.20;99.90;;;;;;5039042;28;20352;-87
2022/02/14 10:05:49;;;;;;;19.25;18.15;;;9.30;99.90;;;;;;5026891;28;20049;-85
2022/02/14 10:08:40;;;;;;;17.98;16.83;;;9.20;99.90;;;;;;5035453;28;20117;-86
2022/02/14 10:11:16;;;;;;;17.77;16.58;;;9.30;99.90;;;;;;5012954;28;20049;-83
2022/02/14 10:13:50;;;;;;;21.08;19.30;;;9.40;99.90;;;;;;5036084;28;20053;-86
2022/02/14 10:16:19;;;;;;;20.60;18.70;;;9.40;99.90;;;;;;5019908;28;20082;-85
2022/02/14 10:18:49;;;;;;;19.42;18.02;;;9.60;99.90;;;;;;5037206;28;20053;-85
2022/02/14 10:21:23;;;;;;;19.25;17.67;;;9.80;99.90;;;;;;5022902;28;20314;-84
2022/02/14 10:24:04;;;;;;;17.90;16.80;;;10.00;99.90;;;;;;5017249;28;20103;-83
2022/02/14 10:26:36;;;;;;;19.17;17.70;;;10.20;99.90;;;;;;5046066;28;20025;-84
2022/02/14 10:29:30;;;;;;;17.65;16.75;;;10.40;99.90;;;;;;5056103;28;20024;-84
2022/02/14 10:32:05;;;;;;;17.80;16.80;;;10.50;99.90;;;;;;5026447;28;20155;-85
2022/02/14 10:34:40;;;;;;;18.70;17.27;;;10.70;99.90;;;;;;5028130;28;20041;-82
2022/02/14 10:37:10;;;;;;;17.58;16.60;;;10.80;99.90;;;;;;5025430;28;20054;-84
2022/02/14 10:39:37;;;;;;;18.40;17.40;;;10.70;99.90;;;;;;5012063;28;20037;-84
2022/02/14 10:42:06;;;;;;;17.80;16.58;;;10.80;99.90;;;;;;5016038;28;20037;-85
2022/02/14 10:47:36;;;;;;;18.42;17.02;;;11.50;99.90;;;;;;5031151;28;20451;-86
2022/02/14 10:50:10;;;;;;;19.40;18.13;;;11.80;99.90;;;;;;5014457;28;20053;-86
2022/02/14 10:52:49;;;;;;;18.13;16.80;;;11.90;99.90;;;;;;5031364;28;20519;-84
2022/02/14 10:55:42;;;;;;;19.38;17.92;;;11.90;99.90;;;;;;5029634;28;20049;-86
2022/02/14 10:58:10;;;;;;;17.35;16.02;;;11.70;99.90;;;;;;5032649;28;20132;-83
2022/02/14 11:00:38;;;;;;;17.70;16.63;;;11.60;99.90;;;;;;5016438;28;20102;-87
2022/02/14 11:03:11;;;;;;;19.02;17.52;;;11.60;99.90;;;;;;5034735;28;20053;-86
2022/02/14 11:05:43;;;;;;;18.90;17.38;;;11.60;99.90;;;;;;5033404;28;20147;-84
2022/02/14 11:08:14;;;;;;;20.17;18.48;;;11.40;99.90;;;;;;5017038;28;20141;-85
2022/02/14 11:10:54;;;;;;;18.65;17.38;;;11.40;99.90;;;;;;5014551;28;20492;-86
2022/02/14 11:13:25;;;;;;;17.35;16.17;;;11.40;99.90;;;;;;5016009;28;20386;-83
2022/02/14 11:15:54;;;;;;;18.10;17.05;;;11.40;99.90;;;;;;5012032;28;20041;-84
2022/02/14 11:18:34;;;;;;;17.67;16.58;;;11.30;99.90;;;;;;5012657;28;20044;-84
2022/02/14 11:21:16;;;;;;;17.90;16.38;;;11.40;99.90;;;;;;5013993;28;20056;-85
2022/02/14 11:23:56;;;;;;;19.10;17.60;;;11.50;99.90;;;;;;5032576;28;20052;-83
2022/02/14 11:26:37;;;;;;;17.10;15.90;;;11.50;99.90;;;;;;5029014;28;20167;-85
2022/02/14 11:29:30;;;;;;;17.77;16.50;;;11.50;99.90;;;;;;5014649;28;20053;-86
2022/02/14 11:32:21;;;;;;;18.25;16.88;;;11.50;99.90;;;;;;5004902;28;20251;-83
2022/02/14 11:34:55;;;;;;;19.48;18.20;;;11.50;99.90;;;;;;5030422;28;20049;-85
2022/02/14 11:37:24;;;;;;;18.98;17.45;;;11.40;99.90;;;;;;5022063;28;20083;-86
2022/02/14 11:39:51;;;;;;;17.20;15.80;;;11.40;99.90;;;;;;5031406;28;20155;-85
2022/02/14 11:42:18;;;;;;;17.08;15.95;;;11.20;99.90;;;;;;5030187;28;20049;-86
2022/02/14 11:44:46;;;;;;;19.40;17.67;;;11.10;99.90;;;;;;5015240;28;20064;-86
2022/02/14 11:47:16;;;;;;;19.23;17.75;;;11.10;99.90;;;;;;5005809;28;20049;-81
2022/02/14 11:49:56;;;;;;;15.88;14.98;;;11.10;99.90;;;;;;5014738;28;20077;-85
2022/02/14 11:52:30;;;;;;;16.60;15.18;;;10.90;99.90;;;;;;5004657;28;20125;-85
2022/02/14 11:55:02;;;;;;;15.27;14.18;;;11.00;99.90;;;;;;5010879;28;20088;-85
2022/02/14 11:57:45;;;;;;;15.07;13.88;;;10.90;99.90;;;;;;4996120;28;20364;-85
2022/02/14 12:00:16;;;;;;;15.93;14.52;;;10.90;99.90;;;;;;4995939;28;20053;-85
2022/02/14 12:02:58;;;;;;;16.25;14.93;;;10.90;99.90;;;;;;5017683;28;20077;-87
2022/02/14 12:05:58;;;;;;;17.00;15.98;;;10.90;99.90;;;;;;5010085;28;21657;-87
2022/02/14 12:08:58;;;;;;;16.05;14.85;;;10.90;99.90;;;;;;5017294;28;20045;-85
2022/02/14 12:11:47;;;;;;;16.45;15.00;;;10.90;99.90;;;;;;5040015;28;20235;-81
2022/02/14 12:14:24;;;;;;;16.95;15.75;;;10.80;99.90;;;;;;5009693;28;20590;-86
2022/02/14 12:22:44;;;;;;;17.27;15.95;;;10.80;99.90;;;;;;5066440;28;20109;-87
2022/02/14 12:25:12;;;;;;;18.30;17.10;;;10.90;99.90;;;;;;5031460;28;20059;-87
2022/02/14 12:27:39;;;;;;;17.10;16.10;;;10.90;99.90;;;;;;5029070;28;20073;-86
2022/02/14 12:30:22;;;;;;;17.50;16.38;;;10.90;99.90;;;;;;5028568;28;20075;-88
2022/02/14 12:33:03;;;;;;;17.05;15.80;;;10.90;99.90;;;;;;5014310;28;20049;-86
2022/02/14 12:35:36;;;;;;;19.00;17.80;;;10.80;99.90;;;;;;5008325;28;20077;-84
2022/02/14 12:38:03;;;;;;;17.95;16.67;;;10.80;99.90;;;;;;4998417;28;20052;-86
2022/02/14 12:40:59;;;;;;;19.27;18.00;;;11.00;99.90;;;;;;5019310;28;20502;-86
2022/02/14 12:43:42;;;;;;;19.30;18.20;;;11.30;99.90;;;;;;5029934;28;20045;-85
2022/02/14 12:46:12;;;;;;;;;;;11.50;99.90;;;;;;5046837;28;20049;-84
2022/02/14 12:48:42;;;;;;;21.92;20.40;;;11.50;99.90;;;;;;5011550;28;19925;-86
2022/02/14 12:51:25;;;;;;;20.98;19.55;;;11.60;99.90;;;;;;5035385;28;20053;-86
2022/02/14 12:53:56;;;;;;;20.13;18.77;;;11.50;99.90;;;;;;5013748;28;20045;-86
2022/02/14 12:56:34;;;;;;;20.45;19.08;;;11.40;99.90;;;;;;5032496;28;20067;-86
2022/02/14 12:59:05;;;;;;;21.13;19.77;;;11.30;99.90;;;;;;5015809;28;20055;-86